Terminal Aerodrome Forecast
Issued by NWS

Home | Current Version | Previous Version | Text Only | Print | Product List | Glossary On
Versions: 1 2 3 4 5 6 7 8 9 10 11 12 13 14 15 16 17 18 19 20 21 22 23 24 25
306
FTUS43 KDLH 211610 AAC
TAFBRD
TAF AMD
KBRD 211610Z 2116/2212 15003KT 3SM BR BKN002
      TEMPO 2116/2118 P6SM NSW BKN004
     FM211800 17005KT P6SM SCT008
     FM212000 21010KT P6SM SCT200
     FM220600 19004KT P6SM BKN200=

USA.gov is the U.S. government's official web portal to all federal, state and local government web resources and services.